createdAt,value
2022-08-05T00:00:16.516Z,156457.25
2022-08-05T00:02:51.717Z,156481.97
2022-08-05T00:06:02.090Z,156497.59
2022-08-05T00:08:34.395Z,156495.00
2022-08-05T00:10:56.594Z,156474.19
2022-08-05T00:13:38.275Z,156470.28
2022-08-05T00:16:12.265Z,156450.72
2022-08-05T00:18:44.690Z,156462.44
2022-08-05T00:21:14.372Z,156461.13
2022-08-05T00:23:45.746Z,156439.00
2022-08-05T00:26:16.455Z,156420.72
2022-08-05T00:28:44.209Z,156444.25
2022-08-05T00:31:15.038Z,156478.06
2022-08-05T00:34:53.818Z,156446.84
2022-08-05T00:37:12.979Z,156454.63
2022-08-05T00:39:17.258Z,156439.00
2022-08-05T00:41:55.049Z,156424.66
2022-08-05T00:44:30.587Z,156425.94
2022-08-05T00:47:02.013Z,156386.91
2022-08-05T00:49:32.515Z,156356.97
2022-08-05T00:52:00.640Z,156334.88
2022-08-05T00:54:30.056Z,156327.03
2022-08-05T00:56:57.739Z,156364.81
2022-08-05T00:59:25.169Z,156385.59
2022-08-05T01:01:52.716Z,156306.25
2022-08-05T01:04:26.747Z,156306.25
2022-08-05T01:06:57.269Z,156246.31
2022-08-05T01:09:30.344Z,156252.84
2022-08-05T01:12:04.890Z,156215.13
2022-08-05T01:14:51.354Z,156159.19
2022-08-05T01:17:25.750Z,156181.28
2022-08-05T01:20:07.204Z,156196.91
2022-08-05T01:22:46.807Z,156196.91
2022-08-05T01:25:40.888Z,156172.19
2022-08-05T01:28:18.945Z,156156.59
2022-08-05T01:30:55.113Z,156134.44
2022-08-05T01:33:26.214Z,156103.28
2022-08-05T01:35:57.598Z,156125.34
2022-08-05T01:38:29.862Z,156107.19
2022-08-05T01:40:59.680Z,156085.03
2022-08-05T01:43:29.316Z,156038.22
2022-08-05T01:45:58.571Z,156030.38
2022-08-05T01:48:37.488Z,156035.59
2022-08-05T01:51:12.120Z,156035.59
2022-08-05T01:53:55.235Z,156021.28
2022-08-05T01:58:10.895Z,156030.38
2022-08-05T01:59:22.646Z,156033.00
2022-08-05T02:01:55.559Z,155952.38
2022-08-05T02:04:27.407Z,155960.16
2022-08-05T02:06:55.006Z,155964.09
2022-08-05T02:09:23.160Z,155974.47
2022-08-05T02:12:09.970Z,155878.22
2022-08-05T02:14:47.097Z,155887.34
2022-08-05T02:18:14.508Z,155884.75
2022-08-05T02:20:20.500Z,155899.09
2022-08-05T02:22:54.339Z,155903.00
2022-08-05T02:25:27.468Z,155879.53
2022-08-05T02:28:04.334Z,155939.41
2022-08-05T02:30:51.707Z,155913.41
2022-08-05T02:33:24.653Z,155913.41
2022-08-05T02:36:09.353Z,155960.16
2022-08-05T02:38:38.379Z,155983.59
2022-08-05T02:41:17.115Z,155970.59
2022-08-05T02:44:02.726Z,155914.69
2022-08-05T02:46:53.519Z,155856.16
2022-08-05T02:49:26.508Z,155882.13
2022-08-05T02:52:02.967Z,155834.06
2022-08-05T02:54:34.534Z,155918.56
2022-08-05T02:57:10.374Z,155861.38
2022-08-05T02:59:54.035Z,155934.16
2022-08-05T03:02:27.514Z,155943.31
2022-08-05T03:04:58.251Z,155934.16
2022-08-05T03:08:00.809Z,155926.41
2022-08-05T03:10:22.102Z,155969.31
2022-08-05T03:12:53.465Z,155905.56
2022-08-05T03:15:23.407Z,155960.16
2022-08-05T03:17:54.162Z,155929.00
2022-08-05T03:20:24.536Z,155912.09
2022-08-05T03:22:53.022Z,155921.19
2022-08-05T03:25:32.933Z,155863.94
2022-08-05T03:28:11.816Z,155889.91
2022-08-05T03:30:42.423Z,155839.25
2022-08-05T03:33:11.834Z,155893.81
2022-08-05T03:35:41.052Z,155866.53
2022-08-05T03:38:11.302Z,155813.25
2022-08-05T03:40:41.118Z,155780.81
2022-08-05T03:43:58.708Z,155762.59
2022-08-05T03:46:00.748Z,155789.88
2022-08-05T03:48:30.345Z,155770.38
2022-08-05T03:52:37.588Z,155771.66
2022-08-05T03:55:51.580Z,155801.56
2022-08-05T03:56:47.510Z,155809.34
2022-08-05T03:59:20.810Z,155788.56
2022-08-05T04:01:51.791Z,155718.41
2022-08-05T04:04:22.820Z,155715.78
2022-08-05T04:06:54.505Z,155772.97
2022-08-05T04:09:26.502Z,155782.06
2022-08-05T04:11:56.709Z,155762.59
2022-08-05T04:14:30.233Z,155705.38
2022-08-05T04:16:59.825Z,155754.75
2022-08-05T04:19:29.300Z,155778.19
2022-08-05T04:22:08.640Z,155779.50
2022-08-05T04:24:43.853Z,155770.38
2022-08-05T04:27:12.463Z,155845.75
2022-08-05T04:29:40.330Z,155831.47
2022-08-05T04:32:08.794Z,155844.47
2022-08-05T04:34:42.613Z,155848.38
2022-08-05T04:37:10.696Z,155824.94
2022-08-05T04:39:39.201Z,155849.63
2022-08-05T04:42:09.132Z,155923.78
2022-08-05T04:44:36.694Z,155944.56
2022-08-05T04:47:09.572Z,155953.69
2022-08-05T04:50:01.633Z,155923.78
2022-08-05T04:52:28.961Z,156017.38
2022-08-05T04:54:57.398Z,156072.00
2022-08-05T04:57:28.555Z,156169.59
2022-08-05T04:59:56.840Z,156077.22
2022-08-05T05:02:37.111Z,156111.06
2022-08-05T05:05:26.768Z,156164.38
2022-08-05T05:08:01.848Z,156252.84
2022-08-05T05:10:30.782Z,156304.94
2022-08-05T05:13:03.834Z,156334.88
2022-08-05T05:15:59.523Z,156379.13
2022-08-05T05:18:31.065Z,156454.63
2022-08-05T05:21:05.569Z,156545.75
2022-08-05T05:23:39.514Z,156530.13
2022-08-05T05:26:28.085Z,156566.59
2022-08-05T05:28:55.660Z,156600.44
2022-08-05T05:31:24.629Z,156636.97
2022-08-05T05:33:59.452Z,156668.19
2022-08-05T05:36:31.005Z,156677.34
2022-08-05T05:38:59.126Z,156690.38
2022-08-05T05:41:26.670Z,156708.56
2022-08-05T05:44:36.091Z,156754.16
2022-08-05T05:46:57.830Z,156791.97
2022-08-05T05:49:25.562Z,156806.31
2022-08-05T05:51:54.771Z,156790.69
2022-08-05T05:54:22.444Z,156850.63
2022-08-05T05:57:13.485Z,156858.41
2022-08-05T05:59:41.409Z,156834.97
2022-08-05T06:02:10.730Z,156861.03
2022-08-05T06:04:38.253Z,156863.66
2022-08-05T06:07:07.355Z,156858.41
2022-08-05T06:10:00.253Z,156827.19
2022-08-05T06:12:27.172Z,156915.75
2022-08-05T06:14:54.738Z,156884.47
2022-08-05T06:17:31.112Z,156953.59
2022-08-05T06:19:59.793Z,156983.56
2022-08-05T06:22:30.404Z,157044.84
2022-08-05T06:25:01.541Z,156944.47
2022-08-05T06:28:11.814Z,156969.22
2022-08-05T06:30:36.367Z,157048.72
2022-08-05T06:33:03.978Z,157132.22
2022-08-05T06:36:03.518Z,157093.06
2022-08-05T06:38:35.988Z,157050.03
2022-08-05T06:41:05.105Z,157127.03
2022-08-05T06:43:58.654Z,157142.63
2022-08-05T06:46:20.329Z,157189.59
2022-08-05T06:48:55.572Z,157257.44
2022-08-05T06:51:30.230Z,157299.19
2022-08-05T06:54:02.012Z,157316.16
2022-08-05T06:56:34.572Z,157301.81
2022-08-05T06:59:03.076Z,157346.13
2022-08-05T07:01:32.218Z,157416.59
2022-08-05T07:04:01.512Z,157455.75
2022-08-05T07:06:30.330Z,157497.50
2022-08-05T07:09:04.387Z,157501.44
2022-08-05T07:11:32.949Z,157658.09
2022-08-05T07:14:29.471Z,157638.50
2022-08-05T07:18:00.085Z,157753.44
2022-08-05T07:22:35.827Z,158006.88
2022-08-05T07:25:22.592Z,158048.69
2022-08-05T07:27:58.828Z,157889.31
2022-08-05T07:30:32.909Z,157889.31
2022-08-05T07:33:01.440Z,157771.69
2022-08-05T07:36:02.606Z,157756.03
2022-08-05T07:38:32.138Z,157741.66
2022-08-05T07:42:08.441Z,157694.63
2022-08-05T07:43:52.736Z,157624.16
2022-08-05T07:46:25.149Z,157571.94
2022-08-05T07:49:01.551Z,157404.81
2022-08-05T07:54:33.593Z,157312.22
2022-08-05T07:57:17.594Z,157265.25
2022-08-05T07:59:54.999Z,157346.13
2022-08-05T08:02:31.214Z,157393.09
2022-08-05T08:05:14.791Z,157380.03
2022-08-05T08:07:59.678Z,157186.97
2022-08-05T08:10:28.412Z,157330.50
2022-08-05T08:12:58.412Z,157433.59
2022-08-05T08:16:33.891Z,157570.63
2022-08-05T08:18:14.335Z,157565.41
2022-08-05T08:20:59.921Z,157415.31
2022-08-05T08:24:02.939Z,157382.66
2022-08-05T08:26:17.113Z,157317.47
2022-08-05T08:29:02.127Z,157257.44
2022-08-05T08:31:43.287Z,157254.84
2022-08-05T08:34:10.733Z,157333.06
2022-08-05T08:36:50.564Z,157348.72
2022-08-05T08:39:21.680Z,157353.97
2022-08-05T08:41:59.507Z,157399.63
2022-08-05T08:45:25.130Z,157393.09
2022-08-05T08:47:21.665Z,157424.47
2022-08-05T08:50:22.655Z,157343.53
2022-08-05T08:52:40.859Z,157408.81
2022-08-05T08:55:19.355Z,157406.19
2022-08-05T08:58:01.176Z,157207.84
2022-08-05T09:00:32.206Z,157241.75
2022-08-05T09:03:00.038Z,157440.13
2022-08-05T09:05:38.642Z,157474.03
2022-08-05T09:08:15.099Z,157611.09
2022-08-05T09:10:46.840Z,157590.25
2022-08-05T09:13:15.127Z,157642.44
2022-08-05T09:15:44.729Z,157510.53
2022-08-05T09:18:13.391Z,157500.13
2022-08-05T09:20:41.902Z,157643.75
2022-08-05T09:23:18.656Z,157745.59
2022-08-05T09:26:00.969Z,157733.84
2022-08-05T09:28:32.112Z,157800.44
2022-08-05T09:31:23.011Z,157932.41
2022-08-05T09:33:54.652Z,157859.25
2022-08-05T09:36:27.963Z,157915.41
2022-08-05T09:39:03.408Z,158021.25
2022-08-05T09:41:58.387Z,158095.75
2022-08-05T09:44:39.483Z,158038.25
2022-08-05T09:47:12.673Z,158033.00
2022-08-05T09:50:00.576Z,158010.81
2022-08-05T09:52:32.387Z,157873.63
2022-08-05T09:55:06.346Z,157769.06
2022-08-05T09:57:49.044Z,157863.19
2022-08-05T10:00:24.658Z,157856.63
2022-08-05T10:02:58.243Z,157975.47
2022-08-05T10:05:27.628Z,158050.00
2022-08-05T10:08:35.081Z,158026.50
2022-08-05T10:10:50.369Z,158107.50
2022-08-05T10:13:47.175Z,158057.81
2022-08-05T10:16:33.953Z,157982.03
2022-08-05T10:19:08.618Z,157911.47
2022-08-05T10:21:40.020Z,158008.19
2022-08-05T10:24:11.048Z,158080.06
2022-08-05T10:30:41.348Z,158017.31
2022-08-05T10:32:52.278Z,158108.81
2022-08-05T10:35:11.627Z,158051.31
2022-08-05T10:37:44.938Z,158070.88
2022-08-05T10:40:20.469Z,158123.19
2022-08-05T10:43:00.464Z,158053.94
2022-08-05T10:45:40.063Z,157999.06
2022-08-05T10:48:39.613Z,158125.75
2022-08-05T10:51:28.303Z,158158.50
2022-08-05T10:53:58.563Z,158006.88
2022-08-05T10:56:31.150Z,158159.81
2022-08-05T10:59:12.185Z,158270.94
2022-08-05T11:01:55.384Z,158307.53
2022-08-05T11:04:30.985Z,158425.22
2022-08-05T11:07:10.965Z,158253.91
2022-08-05T11:09:46.460Z,158238.19
2022-08-05T11:12:50.882Z,158221.19
2022-08-05T11:16:00.326Z,158226.44
2022-08-05T11:18:26.967Z,158184.63
2022-08-05T11:20:55.164Z,158240.81
2022-08-05T11:23:33.600Z,158256.53
2022-08-05T11:26:28.075Z,158438.28
2022-08-05T11:28:58.721Z,158383.38
2022-08-05T11:31:57.835Z,158371.56
2022-08-05T11:34:37.479Z,158193.75
2022-08-05T11:37:06.218Z,158341.53
2022-08-05T11:39:55.123Z,158429.16
2022-08-05T11:42:28.182Z,158435.72
2022-08-05T11:45:03.461Z,158535.13
2022-08-05T11:47:48.777Z,158658.06
2022-08-05T11:50:17.669Z,158707.84
2022-08-05T11:52:46.243Z,158486.69
2022-08-05T11:55:18.379Z,158495.84
2022-08-05T11:58:09.743Z,158484.06
2022-08-05T12:00:38.462Z,158558.69
2022-08-05T12:03:23.779Z,158455.31
2022-08-05T12:05:59.999Z,158573.06
2022-08-05T12:08:27.511Z,158710.47
2022-08-05T12:10:59.910Z,158707.84
2022-08-05T12:13:48.873Z,158540.38
2022-08-05T12:16:19.345Z,158519.41
2022-08-05T12:18:52.202Z,158545.63
2022-08-05T12:21:26.886Z,158590.03
2022-08-05T12:24:04.611Z,158644.97
2022-08-05T12:26:36.340Z,158655.50
2022-08-05T12:29:04.891Z,158609.69
2022-08-05T12:31:43.509Z,158660.69
2022-08-05T12:34:21.370Z,158820.44
2022-08-05T12:36:53.290Z,158842.66
2022-08-05T12:39:21.417Z,158794.22
2022-08-05T12:41:50.232Z,158778.50
2022-08-05T12:44:33.946Z,158718.31
2022-08-05T12:47:02.686Z,158723.56
2022-08-05T12:50:04.010Z,158683.00
2022-08-05T12:52:35.310Z,158880.59
2022-08-05T12:55:17.804Z,158904.16
2022-08-05T12:58:50.015Z,158786.34
2022-08-05T13:02:01.011Z,158711.75
2022-08-05T13:03:32.494Z,158775.88
2022-08-05T13:06:01.047Z,158714.38
2022-08-05T13:08:32.421Z,158680.38
2022-08-05T13:11:01.336Z,158574.41
2022-08-05T13:14:05.297Z,158600.53
2022-08-05T13:16:19.451Z,158663.31
2022-08-05T13:18:52.072Z,158710.47
2022-08-05T13:21:22.735Z,158699.97
2022-08-05T13:23:56.133Z,158634.53
2022-08-05T13:26:30.061Z,158702.59
2022-08-05T13:28:59.528Z,158702.59
2022-08-05T13:31:33.923Z,158739.22
2022-08-05T13:34:22.810Z,158679.06
2022-08-05T13:36:53.181Z,158634.53
2022-08-05T13:40:13.704Z,158637.16
2022-08-05T13:42:14.034Z,158651.56
2022-08-05T13:44:45.886Z,158644.97
2022-08-05T13:47:34.575Z,158571.78
2022-08-05T13:50:04.624Z,158624.06
2022-08-05T13:52:35.561Z,158673.81
2022-08-05T13:55:07.305Z,158633.22
2022-08-05T13:57:51.184Z,158562.56
2022-08-05T14:00:27.659Z,158514.16
2022-08-05T14:02:56.299Z,158600.53
2022-08-05T14:05:29.729Z,158637.16
2022-08-05T14:08:20.052Z,158597.94
2022-08-05T14:10:48.490Z,158658.06
2022-08-05T14:13:16.275Z,158730.06
2022-08-05T14:16:07.635Z,158673.81
2022-08-05T14:18:32.535Z,158642.41
2022-08-05T14:21:00.240Z,158686.91
2022-08-05T14:23:47.435Z,158681.69
2022-08-05T14:26:35.594Z,158692.16
2022-08-05T14:29:02.641Z,158717.00
2022-08-05T14:31:54.494Z,158684.28
2022-08-05T14:34:18.870Z,158684.28
2022-08-05T14:36:51.340Z,158605.75
2022-08-05T14:39:23.254Z,158595.28
2022-08-05T14:42:15.877Z,158595.28
2022-08-05T14:44:38.592Z,158569.13
2022-08-05T14:47:07.490Z,158532.50
2022-08-05T14:49:59.328Z,158544.31
2022-08-05T14:52:50.522Z,158563.88
2022-08-05T14:55:15.439Z,158571.78
2022-08-05T14:57:56.307Z,158590.03
2022-08-05T15:00:28.150Z,158535.13
2022-08-05T15:02:58.246Z,158525.94
2022-08-05T15:05:30.010Z,158528.56
2022-08-05T15:08:18.054Z,158485.41
2022-08-05T15:11:02.079Z,158443.53
2022-08-05T15:13:46.264Z,158511.53
2022-08-05T15:16:17.628Z,158527.25
2022-08-05T15:18:47.195Z,158508.91
2022-08-05T15:21:14.827Z,158529.88
2022-08-05T15:23:48.579Z,158562.56
2022-08-05T15:26:17.395Z,158527.25
2022-08-05T15:28:59.823Z,158469.69
2022-08-05T15:31:34.814Z,158399.03
2022-08-05T15:34:18.710Z,158405.63
2022-08-05T15:36:51.261Z,158422.66
2022-08-05T15:40:58.698Z,158460.56
2022-08-05T15:42:49.982Z,158429.16
2022-08-05T15:44:55.000Z,158412.16
2022-08-05T15:47:23.585Z,158454.00
2022-08-05T15:49:59.115Z,158468.38
2022-08-05T15:52:51.967Z,158502.41
2022-08-05T15:55:15.732Z,158459.25
2022-08-05T15:57:45.066Z,158420.03
2022-08-05T16:00:13.455Z,158426.53
2022-08-05T16:02:44.699Z,158410.84
2022-08-05T16:05:13.541Z,158378.13
2022-08-05T16:07:46.463Z,158412.16
2022-08-05T16:10:16.498Z,158383.38
2022-08-05T16:12:51.482Z,158352.00
2022-08-05T16:15:21.416Z,158376.81
2022-08-05T16:17:58.079Z,158358.50
2022-08-05T16:20:27.850Z,158337.59
2022-08-05T16:22:55.574Z,158302.28
2022-08-05T16:25:34.103Z,158317.97
2022-08-05T16:28:05.599Z,158297.09
2022-08-05T16:30:34.411Z,158307.53
2022-08-05T16:33:03.696Z,158284.03
2022-08-05T16:35:41.879Z,158325.84
2022-08-05T16:38:23.860Z,158308.84
2022-08-05T16:40:55.187Z,158294.47
2022-08-05T16:43:24.018Z,158286.63
2022-08-05T16:46:06.200Z,158235.59
2022-08-05T16:48:40.225Z,158200.31
2022-08-05T16:51:10.798Z,158129.75
2022-08-05T16:54:05.274Z,158148.06
2022-08-05T16:56:29.102Z,158108.81
2022-08-05T16:58:57.728Z,158149.38
2022-08-05T17:01:25.508Z,158161.13
2022-08-05T17:03:53.092Z,158080.06
2022-08-05T17:06:24.725Z,158083.94
2022-08-05T17:08:54.423Z,158061.75
2022-08-05T17:11:23.258Z,158050.00
2022-08-05T17:13:51.742Z,158027.81
2022-08-05T17:16:33.054Z,158014.69
2022-08-05T17:19:01.218Z,157970.28
2022-08-05T17:21:36.122Z,157967.66
2022-08-05T17:24:09.318Z,157928.47
2022-08-05T17:26:52.353Z,157906.25
2022-08-05T17:29:22.573Z,157829.16
2022-08-05T17:32:00.456Z,157844.84
2022-08-05T17:34:29.690Z,157854.00
2022-08-05T17:37:00.791Z,157857.94
2022-08-05T17:39:33.474Z,157868.38
2022-08-05T17:42:18.439Z,157838.28
2022-08-05T17:44:50.255Z,157769.06
2022-08-05T17:47:22.069Z,157806.97
2022-08-05T17:50:00.319Z,157746.91
2022-08-05T17:52:33.530Z,157675.03
2022-08-05T17:55:00.966Z,157612.41
2022-08-05T17:57:30.772Z,157603.28
2022-08-05T18:00:04.697Z,157515.78
2022-08-05T18:02:33.210Z,157387.84
2022-08-05T18:05:03.696Z,157312.22
2022-08-05T18:07:41.543Z,157244.34
2022-08-05T18:10:11.098Z,157186.97
2022-08-05T18:12:39.131Z,157181.78
2022-08-05T18:15:08.764Z,157098.34
2022-08-05T18:18:00.239Z,157025.28
2022-08-05T18:20:29.316Z,156880.59
2022-08-05T18:23:11.222Z,156803.69
2022-08-05T18:25:45.319Z,156765.88
2022-08-05T18:28:16.582Z,156756.78
2022-08-05T18:30:44.782Z,156642.16
2022-08-05T18:33:13.823Z,156636.97
2022-08-05T18:36:00.850Z,156540.56
2022-08-05T18:38:31.556Z,156493.69
2022-08-05T18:41:55.542Z,156514.53
2022-08-05T18:43:48.597Z,156390.84
2022-08-05T18:46:20.088Z,156493.69
2022-08-05T18:48:48.207Z,156342.66
2022-08-05T18:52:04.882Z,156358.28
2022-08-05T18:54:26.452Z,156327.03
2022-08-05T18:56:57.225Z,156234.63
2022-08-05T18:59:42.812Z,156173.50
2022-08-05T19:02:26.468Z,156182.59
2022-08-05T19:05:02.153Z,156173.50
2022-08-05T19:07:45.925Z,156147.50
2022-08-05T19:10:15.729Z,156161.75
2022-08-05T19:12:43.446Z,156206.00
2022-08-05T19:15:57.934Z,156181.28
2022-08-05T19:18:10.468Z,156185.22
2022-08-05T19:20:43.315Z,156203.38
2022-08-05T19:24:03.795Z,156187.81
2022-08-05T19:26:03.232Z,156152.66
2022-08-05T19:28:31.095Z,156220.31
2022-08-05T19:31:00.879Z,156155.28
2022-08-05T19:33:35.503Z,156156.59
2022-08-05T19:36:05.942Z,156147.50
2022-08-05T19:38:35.590Z,156137.06
2022-08-05T19:41:07.263Z,156072.00
2022-08-05T19:44:06.283Z,156173.50
2022-08-05T19:46:29.048Z,156081.06
2022-08-05T19:49:03.256Z,156038.22
2022-08-05T19:52:05.328Z,156092.88
2022-08-05T19:54:27.075Z,155977.09
2022-08-05T19:57:02.114Z,155934.16
2022-08-05T20:00:00.265Z,155899.09
2022-08-05T20:02:18.284Z,155873.06
2022-08-05T20:04:48.285Z,155840.53
2022-08-05T20:07:16.072Z,155882.13
2022-08-05T20:10:11.479Z,155824.94
2022-08-05T20:12:45.814Z,155789.88
2022-08-05T20:15:14.137Z,155862.66
2022-08-05T20:17:41.539Z,155858.75
2022-08-05T20:20:11.091Z,155817.16
2022-08-05T20:22:38.609Z,155823.63
2022-08-05T20:25:10.122Z,155848.38
2022-08-05T20:27:41.751Z,155861.38
2022-08-05T20:30:12.192Z,155778.19
2022-08-05T20:32:45.134Z,155767.75
2022-08-05T20:35:13.046Z,155814.56
2022-08-05T20:38:05.659Z,155759.97
2022-08-05T20:40:30.186Z,155696.28
2022-08-05T20:43:00.397Z,155713.25
2022-08-05T20:45:56.526Z,155658.63
2022-08-05T20:48:16.966Z,155631.34
2022-08-05T20:50:45.400Z,155658.63
2022-08-05T20:53:15.931Z,155661.19
2022-08-05T20:56:08.600Z,155619.63
2022-08-05T20:58:36.985Z,155624.81
2022-08-05T21:01:05.984Z,155592.34
2022-08-05T21:03:34.468Z,155511.81
2022-08-05T21:06:02.657Z,155557.28
2022-08-05T21:08:41.845Z,155540.41
2022-08-05T21:11:11.837Z,155589.78
2022-08-05T21:13:55.394Z,155645.59
2022-08-05T21:16:29.377Z,155622.22
2022-08-05T21:18:59.977Z,155426.13
2022-08-05T21:21:39.034Z,155385.88
2022-08-05T21:24:13.215Z,155410.53
2022-08-05T21:26:41.233Z,155419.59
2022-08-05T21:29:12.590Z,155378.06
2022-08-05T21:31:45.620Z,155357.31
2022-08-05T21:34:15.686Z,155388.44
2022-08-05T21:36:43.150Z,155453.38
2022-08-05T21:39:17.018Z,155359.94
2022-08-05T21:42:01.169Z,155409.22
2022-08-05T21:44:29.876Z,155284.56
2022-08-05T21:46:58.800Z,155349.50
2022-08-05T21:49:48.078Z,155384.56
2022-08-05T21:52:22.735Z,155396.25
2022-08-05T21:54:56.213Z,155367.69
2022-08-05T21:57:32.395Z,155261.22
2022-08-05T22:00:06.169Z,155300.16
2022-08-05T22:02:35.725Z,155208.03
2022-08-05T22:05:04.817Z,155230.06
2022-08-05T22:07:40.187Z,155188.53
2022-08-05T22:10:27.182Z,155266.38
2022-08-05T22:12:55.369Z,155185.94
2022-08-05T22:16:00.851Z,155235.28
2022-08-05T22:18:14.744Z,155205.44
2022-08-05T22:20:42.894Z,155134.06
2022-08-05T22:24:03.037Z,155172.97
2022-08-05T22:26:34.375Z,155200.22
2022-08-05T22:29:02.998Z,155204.13
2022-08-05T22:31:31.581Z,155105.50
2022-08-05T22:34:20.088Z,155204.13
2022-08-05T22:36:53.535Z,155150.94
2022-08-05T22:39:21.394Z,155143.19
2022-08-05T22:42:09.493Z,155150.94
2022-08-05T22:44:36.584Z,155127.59
2022-08-05T22:47:05.789Z,155048.44
2022-08-05T22:50:19.732Z,155087.34
2022-08-05T22:52:30.254Z,155165.22
2022-08-05T22:55:00.206Z,155048.44
2022-08-05T22:57:34.211Z,154916.16
2022-08-05T23:00:05.585Z,154847.38
2022-08-05T23:02:39.774Z,154956.34
2022-08-05T23:05:15.793Z,154922.66
2022-08-05T23:07:48.403Z,154853.88
2022-08-05T23:10:19.696Z,154829.28
2022-08-05T23:12:48.112Z,154817.63
2022-08-05T23:15:19.360Z,154862.94
2022-08-05T23:18:00.627Z,154772.22
2022-08-05T23:20:32.345Z,154776.13
2022-08-05T23:22:59.931Z,154783.91
2022-08-05T23:25:52.763Z,154745.03
2022-08-05T23:28:15.653Z,154739.81
2022-08-05T23:30:53.663Z,154728.16
2022-08-05T23:33:26.504Z,154785.19
2022-08-05T23:36:13.490Z,154780.00
2022-08-05T23:38:42.067Z,154804.59
2022-08-05T23:41:10.459Z,154685.41
2022-08-05T23:44:04.395Z,154666.00
2022-08-05T23:46:25.894Z,154659.50
2022-08-05T23:48:59.608Z,154686.69
2022-08-05T23:51:54.181Z,154735.97
2022-08-05T23:54:26.019Z,154680.25
2022-08-05T23:56:55.524Z,154686.69
2022-08-05T23:59:37.786Z,154672.44
